createdAt,value
2023-03-29T00:01:00.460Z,101041.27
2023-03-29T00:03:29.020Z,101044.59
2023-03-29T00:06:03.577Z,101046.69
2023-03-29T00:08:34.312Z,101045.67
2023-03-29T00:11:03.038Z,101044.65
2023-03-29T00:13:31.295Z,101048.13
2023-03-29T00:15:59.542Z,101050.58
2023-03-29T00:18:28.012Z,101053.55
2023-03-29T00:20:57.614Z,101048.02
2023-03-29T00:23:26.252Z,101047.54
2023-03-29T00:25:54.658Z,101051.03
2023-03-29T00:28:23.173Z,101053.83
2023-03-29T00:30:51.683Z,101052.64
2023-03-29T00:33:21.055Z,101050.09
2023-03-29T00:35:49.484Z,101050.11
2023-03-29T00:38:18.336Z,101052.40
2023-03-29T00:40:47.236Z,101051.75
2023-03-29T00:43:16.039Z,101050.91
2023-03-29T00:45:44.367Z,101048.00
2023-03-29T00:48:16.038Z,101051.83
2023-03-29T00:51:04.247Z,101049.59
2023-03-29T00:53:44.557Z,101047.74
2023-03-29T00:56:18.232Z,101047.09
2023-03-29T00:59:18.795Z,101044.02
2023-03-29T01:01:55.201Z,101040.57
2023-03-29T01:04:32.980Z,101039.55
2023-03-29T01:07:13.308Z,101040.07
2023-03-29T01:09:45.965Z,101038.89
2023-03-29T01:12:20.238Z,101042.87
2023-03-29T01:14:55.704Z,101041.85
2023-03-29T01:17:25.807Z,101045.15
2023-03-29T01:20:10.885Z,101041.52
2023-03-29T01:22:57.347Z,101042.23
2023-03-29T01:25:54.554Z,101044.48
2023-03-29T01:28:30.250Z,101043.10
2023-03-29T01:31:07.531Z,101039.48
2023-03-29T01:33:48.549Z,101037.71
2023-03-29T01:36:20.033Z,101040.65
2023-03-29T01:38:59.632Z,101040.48
2023-03-29T01:41:45.754Z,101039.09
2023-03-29T01:44:45.761Z,101037.19
2023-03-29T01:47:43.482Z,101039.95
2023-03-29T01:50:18.210Z,101044.45
2023-03-29T01:52:46.343Z,101045.14
2023-03-29T01:55:21.081Z,101045.15
2023-03-29T01:57:52.689Z,101046.52
2023-03-29T02:00:27.784Z,101042.73
2023-03-29T02:03:00.720Z,101041.66
2023-03-29T02:05:31.992Z,101041.84
2023-03-29T02:08:01.949Z,101044.58
2023-03-29T02:10:34.452Z,101039.39
2023-03-29T02:13:03.254Z,101040.94
2023-03-29T02:15:34.474Z,101032.58
2023-03-29T02:18:06.779Z,101044.05
2023-03-29T02:20:43.089Z,101047.01
2023-03-29T02:23:23.939Z,101051.50
2023-03-29T02:25:57.149Z,101051.17
2023-03-29T02:28:27.361Z,101047.39
2023-03-29T02:31:23.018Z,101052.58
2023-03-29T02:33:56.134Z,101055.19
2023-03-29T02:36:31.209Z,101052.59
2023-03-29T02:39:04.693Z,101053.45
2023-03-29T02:41:34.115Z,101056.77
2023-03-29T02:44:05.651Z,101058.16
2023-03-29T02:46:35.459Z,101060.26
2023-03-29T02:49:05.316Z,101060.44
2023-03-29T02:51:34.840Z,101060.48
2023-03-29T02:54:12.984Z,101062.55
2023-03-29T02:57:03.722Z,101063.77
2023-03-29T02:59:33.522Z,101060.48
2023-03-29T03:02:01.649Z,101060.67
2023-03-29T03:04:30.031Z,101060.00
2023-03-29T03:06:58.040Z,101057.27
2023-03-29T03:09:27.557Z,101057.12
2023-03-29T03:11:56.239Z,101057.16
2023-03-29T03:14:25.775Z,101059.42
2023-03-29T03:16:55.252Z,101063.60
2023-03-29T03:19:23.789Z,101061.73
2023-03-29T03:21:51.859Z,101065.20
2023-03-29T03:24:19.813Z,101069.20
2023-03-29T03:26:48.007Z,101070.62
2023-03-29T03:29:16.383Z,101069.63
2023-03-29T03:32:04.595Z,101072.22
2023-03-29T03:34:51.999Z,101071.92
2023-03-29T03:37:23.834Z,101074.02
2023-03-29T03:39:52.121Z,101070.93
2023-03-29T03:42:20.790Z,101073.02
2023-03-29T03:44:50.144Z,101073.56
2023-03-29T03:47:48.509Z,101075.54
2023-03-29T03:50:21.815Z,101075.91
2023-03-29T03:52:50.134Z,101082.01
2023-03-29T03:55:18.155Z,101079.14
2023-03-29T03:58:05.287Z,101076.41
2023-03-29T04:00:33.747Z,101086.96
2023-03-29T04:03:14.859Z,101088.37
2023-03-29T04:05:45.024Z,101083.58
2023-03-29T04:08:14.232Z,101088.96
2023-03-29T04:11:07.650Z,101096.95
2023-03-29T04:13:38.270Z,101095.94
2023-03-29T04:16:19.760Z,101096.14
2023-03-29T04:18:47.968Z,101101.33
2023-03-29T04:21:18.884Z,101101.34
2023-03-29T04:23:49.305Z,101098.56
2023-03-29T04:26:18.239Z,101099.27
2023-03-29T04:28:52.461Z,101098.40
2023-03-29T04:31:35.324Z,101097.02
2023-03-29T04:34:26.391Z,101096.33
2023-03-29T04:36:54.670Z,101096.15
2023-03-29T04:39:32.325Z,101100.65
2023-03-29T04:42:03.045Z,101101.70
2023-03-29T04:44:34.202Z,101101.88
2023-03-29T04:47:03.876Z,101105.16
2023-03-29T04:49:53.637Z,101108.95
2023-03-29T04:52:33.332Z,101107.40
2023-03-29T04:55:03.221Z,101108.42
2023-03-29T04:57:46.987Z,101106.17
2023-03-29T05:00:27.307Z,101106.13
2023-03-29T05:03:14.715Z,101104.73
2023-03-29T05:06:12.192Z,101102.80
2023-03-29T05:08:41.011Z,101104.48
2023-03-29T05:11:25.442Z,101104.09
2023-03-29T05:13:55.971Z,101109.75
2023-03-29T05:16:26.555Z,101107.80
2023-03-29T05:18:56.945Z,101106.02
2023-03-29T05:21:28.884Z,101106.84
2023-03-29T05:23:58.882Z,101108.52
2023-03-29T05:26:45.098Z,101109.52
2023-03-29T05:29:14.320Z,101105.14
2023-03-29T05:31:43.656Z,101109.73
2023-03-29T05:34:11.913Z,101108.11
2023-03-29T05:36:43.447Z,101108.55
2023-03-29T05:39:11.692Z,101112.96
2023-03-29T05:41:40.606Z,101109.92
2023-03-29T05:44:26.074Z,101109.81
2023-03-29T05:46:59.314Z,101112.83
2023-03-29T05:49:27.388Z,101115.33
2023-03-29T05:52:15.911Z,101120.59
2023-03-29T05:54:44.272Z,101118.05
2023-03-29T05:57:12.869Z,101114.80
2023-03-29T05:59:43.393Z,101115.71
2023-03-29T06:02:12.532Z,101114.16
2023-03-29T06:04:45.697Z,101110.37
2023-03-29T06:07:26.013Z,101117.46
2023-03-29T06:10:23.798Z,101104.27
2023-03-29T06:12:56.959Z,101118.85
2023-03-29T06:15:25.742Z,101118.17
2023-03-29T06:18:09.943Z,101114.20
2023-03-29T06:20:38.801Z,101120.22
2023-03-29T06:23:10.997Z,101118.48
2023-03-29T06:25:39.799Z,101123.83
2023-03-29T06:28:07.872Z,101121.94
2023-03-29T06:30:36.450Z,101093.51
2023-03-29T06:33:07.309Z,101126.25
2023-03-29T06:35:48.728Z,101128.14
2023-03-29T06:38:21.087Z,101131.29
2023-03-29T06:41:13.139Z,101128.75
2023-03-29T06:44:04.309Z,101125.80
2023-03-29T06:46:38.607Z,101113.46
2023-03-29T06:49:08.751Z,101131.69
2023-03-29T06:52:00.201Z,101130.95
2023-03-29T06:54:28.243Z,101133.02
2023-03-29T06:57:04.946Z,101132.66
2023-03-29T06:59:35.107Z,101137.13
2023-03-29T07:02:25.413Z,101136.36
2023-03-29T07:05:01.505Z,101140.65
2023-03-29T07:07:52.557Z,101142.73
2023-03-29T07:10:35.468Z,101144.48
2023-03-29T07:13:30.672Z,101144.77
2023-03-29T07:16:00.154Z,101147.01
2023-03-29T07:18:46.946Z,101148.54
2023-03-29T07:21:29.063Z,101147.88
2023-03-29T07:23:58.405Z,101149.98
2023-03-29T07:26:28.754Z,101145.98
2023-03-29T07:28:58.903Z,101145.41
2023-03-29T07:31:29.476Z,101140.51
2023-03-29T07:34:06.801Z,101140.81
2023-03-29T07:36:34.888Z,101137.56
2023-03-29T07:39:03.776Z,101135.92
2023-03-29T07:41:34.339Z,101135.27
2023-03-29T07:44:09.581Z,101129.76
2023-03-29T07:46:39.406Z,101131.35
2023-03-29T07:49:08.251Z,101129.79
2023-03-29T07:51:37.171Z,101128.63
2023-03-29T07:54:09.092Z,101129.38
2023-03-29T07:56:47.764Z,101126.24
2023-03-29T07:59:45.203Z,101127.10
2023-03-29T08:02:19.725Z,101130.56
2023-03-29T08:04:50.256Z,101131.95
2023-03-29T08:07:19.989Z,101129.17
2023-03-29T08:10:09.512Z,101126.39
2023-03-29T08:13:08.507Z,101117.70
2023-03-29T08:15:47.496Z,101117.25
2023-03-29T08:18:29.815Z,101108.85
2023-03-29T08:20:58.767Z,101111.80
2023-03-29T08:23:27.237Z,101113.58
2023-03-29T08:26:16.205Z,101106.59
2023-03-29T08:28:44.919Z,101102.90
2023-03-29T08:31:13.290Z,101102.84
2023-03-29T08:33:47.354Z,101106.90
2023-03-29T08:36:38.429Z,101103.71
2023-03-29T08:39:12.214Z,101098.95
2023-03-29T08:41:54.590Z,101097.79
2023-03-29T08:44:42.003Z,101097.66
2023-03-29T08:47:46.775Z,101099.95
2023-03-29T08:50:16.042Z,101099.75
2023-03-29T08:52:56.050Z,101097.42
2023-03-29T08:55:45.706Z,101095.91
2023-03-29T08:58:40.717Z,101092.09
2023-03-29T09:01:11.739Z,101094.08
2023-03-29T09:04:31.725Z,101093.62
2023-03-29T09:07:10.294Z,101089.73
2023-03-29T09:09:43.153Z,101091.35
2023-03-29T09:12:32.227Z,101091.91
2023-03-29T09:15:22.224Z,101095.29
2023-03-29T09:18:19.628Z,101079.06
2023-03-29T09:20:52.599Z,101091.25
2023-03-29T09:23:34.923Z,101094.63
2023-03-29T09:26:18.714Z,101090.30
2023-03-29T09:29:33.294Z,101088.00
2023-03-29T09:32:06.704Z,101081.05
2023-03-29T09:34:49.180Z,101073.83
2023-03-29T09:37:30.074Z,101059.48
2023-03-29T09:39:58.543Z,101042.27
2023-03-29T09:42:38.255Z,101057.38
2023-03-29T09:45:08.850Z,101067.27
2023-03-29T09:47:51.787Z,101064.15
2023-03-29T09:50:31.318Z,101059.81
2023-03-29T09:53:01.797Z,101053.52
2023-03-29T09:55:33.989Z,101055.65
2023-03-29T09:58:27.579Z,101053.00
2023-03-29T10:01:01.648Z,101050.52
2023-03-29T10:03:32.151Z,101051.36
2023-03-29T10:06:12.278Z,101049.91
2023-03-29T10:08:47.910Z,101046.05
2023-03-29T10:11:29.140Z,101053.17
2023-03-29T10:14:03.951Z,101051.08
2023-03-29T10:16:40.439Z,101047.73
2023-03-29T10:19:34.505Z,101049.84
2023-03-29T10:22:07.792Z,101045.19
2023-03-29T10:24:35.712Z,101047.39
2023-03-29T10:27:10.732Z,101048.20
2023-03-29T10:29:43.204Z,101046.48
2023-03-29T10:32:26.349Z,101039.52
2023-03-29T10:34:55.318Z,101041.25
2023-03-29T10:37:23.936Z,101042.68
2023-03-29T10:39:54.831Z,101041.35
2023-03-29T10:42:25.296Z,101042.25
2023-03-29T10:44:56.635Z,100991.36
2023-03-29T10:47:25.593Z,101040.38
2023-03-29T10:49:57.069Z,101038.77
2023-03-29T10:52:26.191Z,101036.77
2023-03-29T10:54:56.469Z,101032.48
2023-03-29T10:57:45.768Z,101026.65
2023-03-29T11:00:18.072Z,101018.09
2023-03-29T11:03:09.838Z,101020.75
2023-03-29T11:05:48.012Z,101017.90
2023-03-29T11:08:58.844Z,101008.92
2023-03-29T11:12:16.412Z,101008.30
2023-03-29T11:15:03.122Z,101004.39
2023-03-29T11:17:59.050Z,101004.46
2023-03-29T11:20:42.334Z,100998.80
2023-03-29T11:23:32.486Z,100995.38
2023-03-29T11:26:18.503Z,100995.95
2023-03-29T11:28:57.237Z,100996.30
2023-03-29T11:31:53.001Z,100990.67
2023-03-29T11:35:02.360Z,100985.98
2023-03-29T11:38:14.510Z,100980.56
2023-03-29T11:40:50.755Z,100977.89
2023-03-29T11:43:35.218Z,100967.90
2023-03-29T11:46:12.040Z,100970.25
2023-03-29T11:48:53.966Z,100969.99
2023-03-29T11:51:30.929Z,100968.36
2023-03-29T11:54:14.293Z,100968.27
2023-03-29T11:56:52.431Z,100968.13
2023-03-29T11:59:28.922Z,100961.95
2023-03-29T12:02:12.683Z,100956.55
2023-03-29T12:04:48.609Z,100949.95
2023-03-29T12:07:47.564Z,100944.43
2023-03-29T12:10:27.648Z,100940.81
2023-03-29T12:13:06.019Z,100939.95
2023-03-29T12:15:45.999Z,100935.39
2023-03-29T12:18:27.983Z,100935.54
2023-03-29T12:21:07.187Z,100937.44
2023-03-29T12:23:42.563Z,100939.64
2023-03-29T12:26:33.924Z,100935.50
2023-03-29T12:29:23.079Z,100929.34
2023-03-29T12:32:22.554Z,100927.52
2023-03-29T12:35:15.093Z,100928.94
2023-03-29T12:38:10.020Z,100924.25
2023-03-29T12:41:05.359Z,100917.73
2023-03-29T12:44:03.789Z,100869.31
2023-03-29T12:46:44.677Z,100918.23
2023-03-29T12:49:32.918Z,100910.48
2023-03-29T12:52:08.772Z,100908.77
2023-03-29T12:54:36.851Z,100902.34
2023-03-29T12:57:48.875Z,100902.98
2023-03-29T13:00:27.161Z,100897.05
2023-03-29T13:03:22.271Z,100899.80
2023-03-29T13:06:04.166Z,100899.30
2023-03-29T13:08:35.728Z,100898.93
2023-03-29T13:11:05.898Z,100894.60
2023-03-29T13:13:37.155Z,100890.04
2023-03-29T13:16:19.615Z,100891.80
2023-03-29T13:19:15.366Z,100888.08
2023-03-29T13:21:54.102Z,100884.65
2023-03-29T13:24:40.599Z,100882.95
2023-03-29T13:27:26.319Z,100876.77
2023-03-29T13:30:20.939Z,100878.05
2023-03-29T13:33:16.368Z,100862.58
2023-03-29T13:36:01.004Z,100869.20
2023-03-29T13:38:33.028Z,100867.04
2023-03-29T13:41:07.349Z,100859.55
2023-03-29T13:43:44.934Z,100858.93
2023-03-29T13:46:36.909Z,100855.83
2023-03-29T13:49:18.340Z,100850.59
2023-03-29T13:52:06.905Z,100849.05
2023-03-29T13:55:00.842Z,100845.59
2023-03-29T13:57:40.049Z,100843.41
2023-03-29T14:00:28.783Z,100839.24
2023-03-29T14:03:04.293Z,100841.20
2023-03-29T14:05:40.199Z,100834.61
2023-03-29T14:08:33.343Z,100835.70
2023-03-29T14:11:05.136Z,100834.30
2023-03-29T14:13:34.904Z,100832.83
2023-03-29T14:16:12.379Z,100834.08
2023-03-29T14:18:49.565Z,100829.43
2023-03-29T14:21:20.619Z,100827.20
2023-03-29T14:23:57.179Z,100826.31
2023-03-29T14:26:30.891Z,100828.41
2023-03-29T14:29:01.508Z,100823.52
2023-03-29T14:31:36.175Z,100821.98
2023-03-29T14:34:08.096Z,100822.46
2023-03-29T14:36:36.527Z,100823.06
2023-03-29T14:39:07.995Z,100825.30
2023-03-29T14:41:38.249Z,100810.71
2023-03-29T14:44:08.703Z,100818.84
2023-03-29T14:46:37.187Z,100818.75
2023-03-29T14:49:06.531Z,100819.86
2023-03-29T14:51:37.737Z,100814.99
2023-03-29T14:54:06.544Z,100810.25
2023-03-29T14:56:34.883Z,100812.60
2023-03-29T14:59:04.992Z,100807.17
2023-03-29T15:01:33.545Z,100805.30
2023-03-29T15:04:07.671Z,100804.58
2023-03-29T15:06:41.817Z,100807.86
2023-03-29T15:09:24.661Z,100803.72
2023-03-29T15:11:58.822Z,100799.65
2023-03-29T15:14:34.055Z,100806.16
2023-03-29T15:17:20.884Z,100798.77
2023-03-29T15:19:56.670Z,100798.55
2023-03-29T15:22:32.100Z,100793.96
2023-03-29T15:25:01.852Z,100794.61
2023-03-29T15:27:41.968Z,100788.91
2023-03-29T15:30:15.865Z,100786.86
2023-03-29T15:32:44.455Z,100788.30
2023-03-29T15:35:26.110Z,100786.35
2023-03-29T15:37:54.183Z,100783.11
2023-03-29T15:40:26.786Z,100773.91
2023-03-29T15:42:55.738Z,100777.56
2023-03-29T15:45:24.082Z,100777.70
2023-03-29T15:47:52.555Z,100752.29
2023-03-29T15:50:20.708Z,100779.81
2023-03-29T15:52:48.959Z,100784.11
2023-03-29T15:55:17.069Z,100780.60
2023-03-29T15:57:48.448Z,100779.25
2023-03-29T16:00:19.571Z,100778.05
2023-03-29T16:02:47.622Z,100778.27
2023-03-29T16:05:15.640Z,100770.65
2023-03-29T16:07:44.130Z,100771.62
2023-03-29T16:10:12.059Z,100723.58
2023-03-29T16:12:40.788Z,100762.52
2023-03-29T16:15:18.138Z,100710.76
2023-03-29T16:17:46.071Z,100759.16
2023-03-29T16:20:20.163Z,100757.42
2023-03-29T16:22:49.072Z,100759.89
2023-03-29T16:25:19.724Z,100756.18
2023-03-29T16:27:47.783Z,100703.55
2023-03-29T16:30:16.119Z,100756.17
2023-03-29T16:32:44.201Z,100755.08
2023-03-29T16:35:32.195Z,100748.80
2023-03-29T16:38:00.525Z,100748.23
2023-03-29T16:40:28.671Z,100748.52
2023-03-29T16:42:56.650Z,100748.29
2023-03-29T16:45:25.223Z,100745.63
2023-03-29T16:47:54.712Z,100742.18
2023-03-29T16:50:27.496Z,100742.47
2023-03-29T16:52:56.113Z,100738.60
2023-03-29T16:55:24.826Z,100736.84
2023-03-29T16:57:52.850Z,100735.85
2023-03-29T17:00:21.975Z,100736.95
2023-03-29T17:02:50.079Z,100733.61
2023-03-29T17:05:19.361Z,100736.71
2023-03-29T17:07:47.554Z,100734.36
2023-03-29T17:10:15.761Z,100736.33
2023-03-29T17:12:43.850Z,100736.42
2023-03-29T17:15:12.161Z,100735.93
2023-03-29T17:17:40.277Z,100733.34
2023-03-29T17:20:12.578Z,100731.59
2023-03-29T17:22:41.510Z,100732.16
2023-03-29T17:25:10.621Z,100733.21
2023-03-29T17:27:38.843Z,100731.48
2023-03-29T17:30:07.496Z,100739.70
2023-03-29T17:32:36.710Z,100748.38
2023-03-29T17:35:05.218Z,100746.34
2023-03-29T17:37:33.423Z,100742.88
2023-03-29T17:40:02.074Z,100743.41
2023-03-29T17:42:30.053Z,100741.67
2023-03-29T17:44:58.578Z,100744.38
2023-03-29T17:47:26.629Z,100750.60
2023-03-29T17:49:54.718Z,100738.46
2023-03-29T17:52:22.843Z,100756.10
2023-03-29T17:54:51.004Z,100758.82
2023-03-29T17:57:19.264Z,100758.52
2023-03-29T17:59:47.372Z,100758.24
2023-03-29T18:02:21.233Z,100759.98
2023-03-29T18:04:51.176Z,100757.73
2023-03-29T18:07:19.768Z,100758.41
2023-03-29T18:09:48.066Z,100754.92
2023-03-29T18:12:16.818Z,100753.15
2023-03-29T18:14:45.132Z,100751.77
2023-03-29T18:17:13.153Z,100746.35
2023-03-29T18:19:41.252Z,100744.77
2023-03-29T18:22:12.580Z,100747.65
2023-03-29T18:24:40.884Z,100749.37
2023-03-29T18:27:09.181Z,100739.80
2023-03-29T18:29:37.493Z,100737.61
2023-03-29T18:32:06.378Z,100737.64
2023-03-29T18:34:34.640Z,100736.93
2023-03-29T18:37:04.413Z,100741.66
2023-03-29T18:39:34.916Z,100743.16
2023-03-29T18:42:03.102Z,100744.23
2023-03-29T18:44:31.454Z,100744.55
2023-03-29T18:47:02.640Z,100746.45
2023-03-29T18:49:30.604Z,100748.51
2023-03-29T18:51:58.953Z,100750.23
2023-03-29T18:54:26.960Z,100746.14
2023-03-29T18:56:57.205Z,100750.15
2023-03-29T18:59:26.991Z,100751.88
2023-03-29T19:01:55.065Z,100750.78
2023-03-29T19:04:26.917Z,100748.59
2023-03-29T19:06:56.428Z,100750.56
2023-03-29T19:09:24.692Z,100748.16
2023-03-29T19:11:54.982Z,100745.93
2023-03-29T19:14:26.250Z,100753.17
2023-03-29T19:16:54.522Z,100756.27
2023-03-29T19:19:23.856Z,100755.88
2023-03-29T19:21:53.553Z,100755.86
2023-03-29T19:24:22.190Z,100749.16
2023-03-29T19:26:53.510Z,100745.66
2023-03-29T19:29:22.139Z,100749.33
2023-03-29T19:31:51.958Z,100741.96
2023-03-29T19:34:23.124Z,100742.14
2023-03-29T19:36:53.520Z,100748.08
2023-03-29T19:39:23.223Z,100741.75
2023-03-29T19:41:51.502Z,100733.68
2023-03-29T19:44:20.241Z,100736.67
2023-03-29T19:46:48.152Z,100732.31
2023-03-29T19:49:16.553Z,100730.07
2023-03-29T19:51:45.193Z,100726.20
2023-03-29T19:54:13.928Z,100698.06
2023-03-29T19:56:43.076Z,100702.57
2023-03-29T19:59:15.020Z,100709.98
2023-03-29T20:01:51.419Z,100711.33
2023-03-29T20:04:22.851Z,100703.87
2023-03-29T20:06:51.098Z,100703.04
2023-03-29T20:09:19.175Z,100701.14
2023-03-29T20:11:47.446Z,100699.59
2023-03-29T20:14:16.127Z,100697.46
2023-03-29T20:16:45.128Z,100692.92
2023-03-29T20:19:17.576Z,100688.95
2023-03-29T20:21:50.944Z,100683.54
2023-03-29T20:24:19.082Z,100686.20
2023-03-29T20:26:47.024Z,100677.31
2023-03-29T20:29:17.941Z,100676.46
2023-03-29T20:31:48.101Z,100663.39
2023-03-29T20:34:18.431Z,100664.63
2023-03-29T20:36:46.998Z,100662.58
2023-03-29T20:39:18.940Z,100662.59
2023-03-29T20:41:48.004Z,100654.88
2023-03-29T20:44:17.576Z,100662.33
2023-03-29T20:46:54.692Z,100661.04
2023-03-29T20:49:26.559Z,100666.61
2023-03-29T20:51:58.927Z,100658.98
2023-03-29T20:54:27.140Z,100662.45
2023-03-29T20:56:55.122Z,100659.48
2023-03-29T20:59:23.884Z,100663.88
2023-03-29T21:01:52.261Z,100662.09
2023-03-29T21:04:23.359Z,100658.60
2023-03-29T21:06:51.540Z,100656.47
2023-03-29T21:09:22.319Z,100653.23
2023-03-29T21:11:50.848Z,100648.45
2023-03-29T21:14:21.329Z,100649.10
2023-03-29T21:16:49.667Z,100649.64
2023-03-29T21:19:17.678Z,100646.25
2023-03-29T21:21:47.563Z,100646.28
2023-03-29T21:24:16.669Z,100648.41
2023-03-29T21:26:48.665Z,100647.16
2023-03-29T21:29:16.825Z,100643.12
2023-03-29T21:31:45.584Z,100641.89
2023-03-29T21:34:13.803Z,100639.40
2023-03-29T21:36:42.491Z,100641.98
2023-03-29T21:39:10.460Z,100640.15
2023-03-29T21:41:38.505Z,100639.32
2023-03-29T21:44:06.592Z,100635.11
2023-03-29T21:46:34.635Z,100640.02
2023-03-29T21:49:02.916Z,100633.70
2023-03-29T21:51:31.173Z,100633.66
2023-03-29T21:53:59.120Z,100634.27
2023-03-29T21:56:28.391Z,100631.56
2023-03-29T21:58:56.464Z,100625.55
2023-03-29T22:01:24.695Z,100625.94
2023-03-29T22:03:53.182Z,100626.32
2023-03-29T22:06:21.400Z,100624.04
2023-03-29T22:08:53.085Z,100623.38
2023-03-29T22:11:21.671Z,100619.02
2023-03-29T22:13:52.561Z,100615.74
2023-03-29T22:16:22.343Z,100613.30
2023-03-29T22:18:50.597Z,100609.10
2023-03-29T22:21:22.563Z,100607.36
2023-03-29T22:23:56.513Z,100606.46
2023-03-29T22:26:28.349Z,100603.11
2023-03-29T22:28:58.400Z,100602.39
2023-03-29T22:31:28.150Z,100600.62
2023-03-29T22:33:56.855Z,100599.19
2023-03-29T22:36:27.268Z,100597.23
2023-03-29T22:38:55.840Z,100592.77
2023-03-29T22:41:26.185Z,100592.03
2023-03-29T22:43:57.304Z,100588.46
2023-03-29T22:46:26.464Z,100584.34
2023-03-29T22:48:54.977Z,100581.23
2023-03-29T22:51:23.603Z,100576.93
2023-03-29T22:53:52.075Z,100569.36
2023-03-29T22:56:20.511Z,100565.27
2023-03-29T22:58:48.643Z,100564.38
2023-03-29T23:01:16.956Z,100568.41
2023-03-29T23:03:45.122Z,100570.67
2023-03-29T23:06:13.198Z,100580.15
2023-03-29T23:08:41.338Z,100576.85
2023-03-29T23:11:09.320Z,100570.10
2023-03-29T23:13:37.502Z,100570.52
2023-03-29T23:16:05.956Z,100570.75
2023-03-29T23:18:37.854Z,100568.81
2023-03-29T23:21:06.869Z,100571.19
2023-03-29T23:23:35.731Z,100571.27
2023-03-29T23:26:04.042Z,100569.61
2023-03-29T23:28:34.808Z,100566.02
2023-03-29T23:31:11.723Z,100559.70
2023-03-29T23:33:42.877Z,100557.92
2023-03-29T23:36:17.669Z,100556.33
2023-03-29T23:38:47.121Z,100555.13
2023-03-29T23:41:16.778Z,100553.96
2023-03-29T23:43:47.274Z,100551.88
2023-03-29T23:46:17.710Z,100552.34
2023-03-29T23:48:49.080Z,100547.16
2023-03-29T23:51:18.923Z,100546.66
2023-03-29T23:53:47.878Z,100547.40
2023-03-29T23:56:16.301Z,100550.85
2023-03-29T23:58:44.869Z,100546.45
